Time;durP1;ratioP1;P1;durP2;ratioP2;P2;SDS_P1;SDS_P2;PMS_P1;PMS_P2;Temp;Humidity;BMP_temperature;BMP_pressure;BME280_temperature;BME280_humidity;BME280_pressure;Samples;Min_cycle;Max_cycle;Signal;HPM_P1;HPM_P2
2023/04/11 00:01:06;;;;;;;24.47;13.20;;;;;;;8.33;76.50;100411.84;4220016;28;20617;-68
2023/04/11 00:03:33;;;;;;;24.20;13.17;;;;;;;8.54;76.07;100404.63;4218206;28;20243;-67
2023/04/11 00:06:00;;;;;;;26.73;13.07;;;;;;;8.66;75.32;100393.72;4224962;28;20293;-68
2023/04/11 00:08:26;;;;;;;22.33;13.23;;;;;;;8.66;75.47;100386.47;4222248;28;20573;-67
2023/04/11 00:10:53;;;;;;;27.27;13.70;;;;;;;8.86;74.58;100390.09;4214084;28;20374;-68
2023/04/11 00:13:19;;;;;;;27.50;13.97;;;;;;;8.71;74.55;100378.81;4220553;28;22130;-68
2023/04/11 00:15:46;;;;;;;25.10;14.17;;;;;;;8.66;74.91;100373.00;4220180;28;20409;-67
2023/04/11 00:18:13;;;;;;;26.80;14.10;;;;;;;8.77;74.83;100371.16;4220044;28;20240;-68
2023/04/11 00:20:39;;;;;;;27.13;13.93;;;;;;;8.53;75.47;100370.53;4219746;28;20292;-70
2023/04/11 00:23:07;;;;;;;24.93;14.70;;;;;;;8.61;75.59;100379.78;4223221;28;20574;-68
2023/04/11 00:25:36;;;;;;;23.07;13.10;;;;;;;8.69;75.07;100370.00;4219789;28;20278;-68
2023/04/11 00:28:03;;;;;;;26.73;13.83;;;;;;;8.53;75.69;100378.63;4218354;28;21691;-67
2023/04/11 00:30:30;;;;;;;25.73;13.97;;;;;;;8.38;75.86;100386.16;4215726;28;20275;-67
2023/04/11 00:32:56;;;;;;;28.63;14.13;;;;;;;8.29;76.15;100384.31;4219449;28;21022;-69
2023/04/11 00:35:23;;;;;;;24.97;14.40;;;;;;;8.51;75.44;100375.19;4207975;28;20248;-66
2023/04/11 00:37:54;;;;;;;22.50;13.57;;;;;;;8.36;75.64;100377.38;4221740;28;20319;-66
2023/04/11 00:40:21;;;;;;;26.63;14.20;;;;;;;8.30;76.27;100369.84;4221443;28;23003;-70
2023/04/11 00:42:48;;;;;;;26.33;14.43;;;;;;;8.40;75.66;100361.78;4206758;28;22049;-68
2023/04/11 00:45:14;;;;;;;25.90;14.37;;;;;;;8.18;76.01;100357.41;4225882;28;20242;-68
2023/04/11 00:47:41;;;;;;;28.03;15.17;;;;;;;8.06;76.50;100362.88;4218603;28;21417;-67
2023/04/11 00:50:08;;;;;;;29.33;15.60;;;;;;;7.92;76.96;100353.28;4220456;28;22799;-68
2023/04/11 00:52:35;;;;;;;31.73;15.27;;;;;;;7.88;77.34;100350.97;4203487;28;20391;-68
2023/04/11 00:55:05;;;;;;;28.10;15.27;;;;;;;7.71;77.37;100328.19;4221489;28;22074;-68
2023/04/11 00:57:32;;;;;;;27.60;14.70;;;;;;;7.79;77.42;100347.25;4214803;28;20391;-67
2023/04/11 01:00:00;;;;;;;28.13;15.87;;;;;;;7.74;77.57;100344.09;4218281;28;20295;-68
2023/04/11 01:02:28;;;;;;;32.07;18.10;;;;;;;7.52;78.40;100343.22;4225393;28;20622;-68
2023/04/11 01:04:55;;;;;;;28.83;16.70;;;;;;;7.49;78.63;100345.31;4218971;28;20234;-68
2023/04/11 01:07:23;;;;;;;32.43;17.37;;;;;;;7.51;78.27;100351.44;4239691;28;20303;-68
2023/04/11 01:09:50;;;;;;;42.67;19.37;;;;;;;7.43;78.70;100347.56;4224552;28;21033;-68
2023/04/11 01:12:17;;;;;;;37.73;19.63;;;;;;;7.38;78.88;100343.53;4220027;28;21173;-68
2023/04/11 01:14:46;;;;;;;34.90;18.87;;;;;;;7.36;79.23;100334.75;4211697;28;21784;-68
2023/04/11 01:17:13;;;;;;;35.73;19.60;;;;;;;7.28;79.87;100332.69;4221991;28;20260;-67
2023/04/11 01:19:40;;;;;;;31.53;19.40;;;;;;;7.26;80.50;100329.25;4201246;28;20423;-69
2023/04/11 01:22:07;;;;;;;37.97;19.97;;;;;;;7.41;79.95;100341.44;4217681;28;21418;-68
2023/04/11 01:24:33;;;;;;;38.03;19.37;;;;;;;7.43;80.34;100330.56;4211027;28;20285;-68
2023/04/11 01:27:02;;;;;;;32.77;18.07;;;;;;;7.44;80.18;100319.63;4215614;28;21745;-68
2023/04/11 01:29:30;;;;;;;32.37;17.10;;;;;;;7.45;79.80;100325.88;4204244;28;22778;-68
2023/04/11 01:31:57;;;;;;;30.17;17.50;;;;;;;7.45;80.11;100331.25;4217558;28;20239;-68
2023/04/11 01:34:26;;;;;;;33.13;17.23;;;;;;;7.50;79.77;100329.03;4222653;28;20230;-67
2023/04/11 01:36:54;;;;;;;33.87;17.90;;;;;;;7.56;79.71;100322.25;4221924;28;20295;-67
2023/04/11 01:39:20;;;;;;;33.27;14.60;;;;;;;7.67;79.61;100324.03;4215755;28;23053;-68
2023/04/11 01:41:47;;;;;;;37.10;15.77;;;;;;;7.77;79.03;100324.97;4214971;28;20685;-67
2023/04/11 01:44:14;;;;;;;27.00;15.50;;;;;;;7.83;78.78;100323.59;4217208;28;20294;-67
2023/04/11 01:46:42;;;;;;;30.87;15.20;;;;;;;7.82;78.76;100320.03;4223059;28;21640;-69
2023/04/11 01:49:08;;;;;;;29.27;14.97;;;;;;;7.79;79.00;100304.13;4216714;28;20231;-67
2023/04/11 01:51:35;;;;;;;31.70;15.00;;;;;;;7.91;78.13;100319.22;4218253;28;20235;-68
2023/04/11 01:54:01;;;;;;;27.13;14.30;;;;;;;7.86;78.48;100313.41;4219028;28;20231;-68
2023/04/11 01:56:29;;;;;;;29.63;15.03;;;;;;;7.81;78.75;100310.25;4225226;28;23257;-67
2023/04/11 01:58:57;;;;;;;31.17;14.20;;;;;;;7.83;78.48;100316.34;4217221;28;20234;-67
2023/04/11 02:01:24;;;;;;;26.83;14.10;;;;;;;7.77;78.42;100306.97;4220820;28;20478;-65
2023/04/11 02:03:51;;;;;;;27.27;14.73;;;;;;;7.72;78.79;100302.97;4220854;28;20950;-67
2023/04/11 02:06:17;;;;;;;31.57;14.53;;;;;;;7.76;78.71;100301.69;4221057;28;20313;-66
2023/04/11 02:08:44;;;;;;;26.27;14.20;;;;;;;7.72;78.77;100300.25;4205577;28;20235;-67
2023/04/11 02:11:10;;;;;;;29.83;14.70;;;;;;;7.69;78.86;100290.59;4215735;28;21727;-67
2023/04/11 02:13:37;;;;;;;27.67;14.60;;;;;;;7.70;78.74;100295.03;4226609;28;22521;-66
2023/04/11 02:16:08;;;;;;;27.00;14.03;;;;;;;7.65;79.13;100291.84;4224615;28;20258;-69
2023/04/11 02:18:35;;;;;;;27.07;13.57;;;;;;;7.68;78.89;100293.41;4220214;28;20274;-67
2023/04/11 02:21:03;;;;;;;24.77;14.03;;;;;;;7.66;78.98;100290.88;4218214;28;20406;-68
2023/04/11 02:23:30;;;;;;;29.23;13.63;;;;;;;7.63;78.67;100285.72;4227736;28;20406;-67
2023/04/11 02:25:56;;;;;;;27.27;14.10;;;;;;;7.59;79.07;100290.53;4205688;28;20737;-68
2023/04/11 02:28:23;;;;;;;24.33;12.90;;;;;;;7.71;78.34;100282.38;4220809;28;21078;-69
2023/04/11 02:30:49;;;;;;;24.23;13.33;;;;;;;7.69;78.36;100281.66;4223800;28;21124;-68
2023/04/11 02:33:16;;;;;;;28.03;13.50;;;;;;;7.67;78.34;100289.88;4229811;28;20240;-67
2023/04/11 02:35:43;;;;;;;24.80;12.33;;;;;;;7.64;78.64;100271.28;4214609;28;20242;-68
2023/04/11 02:38:09;;;;;;;25.07;12.17;;;;;;;7.57;78.71;100267.41;4224226;28;23907;-67
2023/04/11 02:40:36;;;;;;;20.90;12.87;;;;;;;7.57;78.91;100273.66;4215556;28;20303;-67
2023/04/11 02:43:03;;;;;;;21.07;12.30;;;;;;;7.58;78.82;100261.03;4227989;28;21084;-69
2023/04/11 02:45:30;;;;;;;23.20;13.00;;;;;;;7.58;78.62;100266.41;4223976;28;20381;-67
2023/04/11 02:47:57;;;;;;;29.23;13.20;;;;;;;7.50;79.54;100260.84;4228147;28;20295;-67
2023/04/11 02:50:25;;;;;;;27.83;13.27;;;;;;;7.52;78.73;100259.72;4225249;28;21623;-66
2023/04/11 02:52:52;;;;;;;28.50;12.90;;;;;;;7.47;78.89;100256.56;4224507;28;20235;-67
2023/04/11 02:55:22;;;;;;;26.33;12.53;;;;;;;7.44;79.08;100255.00;4209226;28;20230;-66
2023/04/11 02:57:49;;;;;;;23.73;13.20;;;;;;;7.47;78.78;100253.03;4216668;28;21331;-66
2023/04/11 03:00:18;;;;;;;31.13;14.17;;;;;;;7.46;78.97;100257.56;4223306;28;20232;-67
2023/04/11 03:02:45;;;;;;;26.10;13.57;;;;;;;7.49;78.79;100249.22;4217441;28;21205;-67
2023/04/11 03:05:11;;;;;;;24.57;13.20;;;;;;;7.47;78.89;100251.19;4229859;28;20611;-67
2023/04/11 03:07:39;;;;;;;26.80;13.67;;;;;;;7.54;78.58;100243.44;4220427;28;21515;-67
2023/04/11 03:10:06;;;;;;;24.13;12.73;;;;;;;7.55;78.46;100251.38;4212052;28;20350;-68
2023/04/11 03:12:33;;;;;;;27.77;13.03;;;;;;;7.53;78.61;100242.56;4228285;28;21098;-69
2023/04/11 03:14:59;;;;;;;29.17;13.07;;;;;;;7.56;78.24;100245.00;4220263;28;20317;-66
2023/04/11 03:17:26;;;;;;;23.63;12.87;;;;;;;7.64;78.09;100233.56;4222022;28;20303;-67
2023/04/11 03:19:52;;;;;;;25.63;13.70;;;;;;;7.59;77.88;100235.81;4227127;28;22167;-66
2023/04/11 03:22:19;;;;;;;24.10;13.30;;;;;;;7.58;78.04;100231.41;4215922;28;22398;-68
2023/04/11 03:24:46;;;;;;;24.80;13.13;;;;;;;7.48;78.61;100243.97;4222508;28;20242;-67
2023/04/11 03:27:12;;;;;;;24.70;14.03;;;;;;;7.45;78.52;100240.56;4229828;28;24919;-67
2023/04/11 03:29:39;;;;;;;29.00;14.87;;;;;;;7.54;78.18;100238.06;4226004;28;20417;-71
2023/04/11 03:32:05;;;;;;;28.17;14.20;;;;;;;7.45;78.42;100237.84;4210633;28;20295;-68
2023/04/11 03:34:32;;;;;;;28.30;14.97;;;;;;;7.43;78.75;100238.97;4223741;28;21883;-67
2023/04/11 03:36:58;;;;;;;27.67;14.73;;;;;;;7.50;78.17;100234.78;4226524;28;20312;-67
2023/04/11 03:39:25;;;;;;;28.90;15.07;;;;;;;7.53;78.06;100234.50;4207701;28;20235;-68
2023/04/11 03:41:51;;;;;;;26.67;15.80;;;;;;;7.44;78.23;100228.06;4221651;28;20311;-68
2023/04/11 03:44:18;;;;;;;28.47;14.90;;;;;;;7.39;78.41;100227.63;4223993;28;20243;-67
2023/04/11 03:46:45;;;;;;;27.20;15.67;;;;;;;7.44;78.31;100230.75;4206761;28;20422;-67
2023/04/11 03:49:11;;;;;;;27.97;15.30;;;;;;;7.44;78.13;100236.16;4221754;28;21054;-67
2023/04/11 03:51:38;;;;;;;28.77;15.97;;;;;;;7.36;78.54;100227.88;4231250;28;20330;-70
2023/04/11 03:54:04;;;;;;;33.07;16.17;;;;;;;7.25;78.97;100231.50;4221863;28;25702;-67
2023/04/11 03:56:31;;;;;;;30.57;16.63;;;;;;;7.23;79.30;100232.59;4208695;28;20306;-67
2023/04/11 03:58:58;;;;;;;27.57;16.00;;;;;;;7.29;78.91;100238.31;4245604;28;21788;-67
2023/04/11 04:01:24;;;;;;;34.10;16.50;;;;;;;7.23;79.43;100224.53;4231934;28;23820;-68
2023/04/11 04:03:51;;;;;;;28.07;16.60;;;;;;;7.34;78.91;100232.53;4192845;28;20705;-68
2023/04/11 04:06:18;;;;;;;31.40;16.93;;;;;;;7.35;78.51;100220.78;4238318;28;20274;-68
2023/04/11 04:08:44;;;;;;;32.80;17.63;;;;;;;7.22;79.22;100230.91;4231428;28;20980;-66
2023/04/11 04:11:11;;;;;;;34.43;18.07;;;;;;;7.07;80.14;100224.97;4217097;28;21211;-67
2023/04/11 04:13:38;;;;;;;32.83;18.70;;;;;;;7.02;80.46;100228.06;4224413;28;21776;-67
2023/04/11 04:16:05;;;;;;;32.87;16.83;;;;;;;7.12;79.98;100225.44;4247682;28;22442;-67
2023/04/11 04:18:31;;;;;;;32.40;16.73;;;;;;;7.12;79.89;100223.59;4223869;28;22245;-66
2023/04/11 04:20:58;;;;;;;31.03;17.83;;;;;;;7.03;80.19;100224.38;4204942;28;20231;-65
2023/04/11 04:23:25;;;;;;;33.77;17.93;;;;;;;6.98;80.61;100226.59;4240590;28;20417;-68
2023/04/11 04:25:52;;;;;;;35.67;17.67;;;;;;;7.03;80.48;100232.44;4244951;28;23718;-69
2023/04/11 04:28:21;;;;;;;31.13;17.17;;;;;;;6.99;80.73;100225.63;4215683;28;20304;-67
2023/04/11 04:30:49;;;;;;;29.40;17.33;;;;;;;6.98;80.51;100221.22;4213290;28;22201;-67
2023/04/11 04:33:17;;;;;;;32.83;17.37;;;;;;;7.03;80.67;100226.22;4213253;28;20636;-67
2023/04/11 04:35:44;;;;;;;29.70;17.97;;;;;;;7.09;80.32;100226.56;4229446;28;21189;-66
2023/04/11 04:38:16;;;;;;;34.30;18.10;;;;;;;7.05;80.70;100222.41;4237339;28;20295;-66
2023/04/11 04:40:43;;;;;;;33.30;17.30;;;;;;;7.08;80.54;100213.22;4220617;28;20341;-67
2023/04/11 04:43:17;;;;;;;38.47;20.90;;;;;;;7.11;80.55;100218.34;4233339;28;20422;-66
2023/04/11 04:45:44;;;;;;;32.63;17.50;;;;;;;7.10;80.75;100214.78;4230735;28;20233;-66
2023/04/11 04:48:13;;;;;;;30.13;17.23;;;;;;;7.28;79.93;100215.09;4228191;28;21657;-69
2023/04/11 04:50:40;;;;;;;35.20;17.67;;;;;;;7.29;79.85;100202.47;4226323;28;20301;-67
2023/04/11 04:53:06;;;;;;;34.60;17.70;;;;;;;7.35;79.84;100206.47;4226342;28;20235;-68
2023/04/11 04:55:33;;;;;;;28.90;16.63;;;;;;;7.42;79.53;100208.50;4239130;28;20292;-67
2023/04/11 04:58:00;;;;;;;30.13;17.43;;;;;;;7.48;79.16;100196.34;4232636;28;20239;-68
2023/04/11 05:00:26;;;;;;;30.47;18.23;;;;;;;7.40;79.65;100193.44;4214534;28;20267;-68
2023/04/11 05:02:53;;;;;;;33.47;18.13;;;;;;;7.47;79.69;100205.41;4223103;28;20254;-65
2023/04/11 05:05:20;;;;;;;32.87;17.63;;;;;;;7.57;79.24;100206.31;4223723;28;20606;-68
2023/04/11 05:07:47;;;;;;;34.53;17.80;;;;;;;7.61;78.69;100213.13;4222367;28;20307;-67
2023/04/11 05:10:14;;;;;;;33.37;17.93;;;;;;;7.67;78.88;100216.25;4218223;28;22921;-67
2023/04/11 05:12:40;;;;;;;34.07;17.17;;;;;;;7.68;78.68;100209.91;4219981;28;20733;-68
2023/04/11 05:15:10;;;;;;;29.90;16.70;;;;;;;7.70;78.62;100207.94;4225862;28;21238;-68
2023/04/11 05:17:37;;;;;;;33.63;17.70;;;;;;;7.82;78.33;100208.69;4227980;28;25262;-68
2023/04/11 05:20:06;;;;;;;27.07;16.23;;;;;;;7.94;77.44;100196.81;4229370;28;20335;-67
2023/04/11 05:22:33;;;;;;;35.07;17.93;;;;;;;7.91;78.01;100194.41;4196167;28;20231;-68
2023/04/11 05:25:01;;;;;;;32.13;17.03;;;;;;;8.09;77.31;100191.91;4204291;28;20231;-67
2023/04/11 05:27:28;;;;;;;31.47;17.30;;;;;;;8.04;77.80;100184.22;4232259;28;20232;-68
2023/04/11 05:29:55;;;;;;;34.83;17.67;;;;;;;7.99;78.22;100177.53;4224692;28;20568;-69
2023/04/11 05:32:21;;;;;;;34.93;16.60;;;;;;;8.04;78.02;100183.41;4229746;28;20546;-64
2023/04/11 05:34:55;;;;;;;34.40;16.83;;;;;;;8.13;77.69;100179.84;4223967;28;20234;-64
2023/04/11 05:37:25;;;;;;;29.77;16.33;;;;;;;8.24;77.08;100174.34;4217835;28;20232;-63
2023/04/11 05:39:51;;;;;;;30.27;17.13;;;;;;;8.32;76.71;100170.94;4216334;28;21844;-65
2023/04/11 05:42:18;;;;;;;32.93;17.13;;;;;;;8.23;77.20;100161.84;4223549;28;21010;-65
2023/04/11 05:44:45;;;;;;;28.33;17.50;;;;;;;8.35;77.30;100169.81;4222114;28;21188;-65
2023/04/11 05:47:11;;;;;;;32.03;17.57;;;;;;;8.49;76.75;100164.06;4210192;28;20312;-65
2023/04/11 05:49:38;;;;;;;29.07;16.37;;;;;;;8.69;75.55;100156.81;4214755;28;20320;-64
2023/04/11 05:52:05;;;;;;;36.10;17.43;;;;;;;8.71;74.90;100154.81;4220386;28;20323;-65
2023/04/11 05:54:34;;;;;;;32.93;17.50;;;;;;;8.66;75.73;100151.72;4228877;28;20235;-66
2023/04/11 05:57:01;;;;;;;30.33;16.60;;;;;;;8.63;75.82;100149.28;4220355;28;20603;-65
2023/04/11 05:59:30;;;;;;;26.40;16.07;;;;;;;8.75;75.51;100147.28;4221107;28;20707;-64
2023/04/11 06:01:57;;;;;;;31.17;16.80;;;;;;;8.95;74.52;100134.63;4227383;28;20279;-66
2023/04/11 06:04:24;;;;;;;27.60;15.67;;;;;;;9.21;73.49;100134.03;4222774;28;23473;-65
2023/04/11 06:06:52;;;;;;;26.80;15.63;;;;;;;9.26;73.09;100137.13;4216792;28;20297;-64
2023/04/11 06:09:19;;;;;;;25.73;15.47;;;;;;;9.36;72.57;100134.41;4215584;28;21738;-65
2023/04/11 06:11:46;;;;;;;28.03;14.67;;;;;;;9.44;72.40;100131.81;4223638;28;20253;-66
2023/04/11 06:14:12;;;;;;;27.37;14.90;;;;;;;9.47;72.04;100126.13;4218161;28;20710;-65
2023/04/11 06:16:40;;;;;;;29.27;15.00;;;;;;;9.71;71.06;100124.72;4224544;28;20322;-66
2023/04/11 06:19:06;;;;;;;32.17;14.73;;;;;;;9.57;72.15;100126.09;4198086;28;22361;-66
2023/04/11 06:21:33;;;;;;;27.40;14.40;;;;;;;9.88;70.75;100128.50;4224199;28;21735;-65
2023/04/11 06:24:10;;;;;;;25.53;13.53;;;;;;;9.82;70.48;100131.78;4224119;28;21011;-63
2023/04/11 06:26:37;;;;;;;23.13;11.93;;;;;;;9.77;70.63;100123.28;4224474;28;21728;-64
2023/04/11 06:29:04;;;;;;;22.57;12.37;;;;;;;9.87;70.59;100120.53;4227278;28;20244;-64
2023/04/11 06:31:32;;;;;;;22.67;13.27;;;;;;;10.02;70.26;100123.56;4236306;28;20235;-65
2023/04/11 06:34:00;;;;;;;27.77;12.90;;;;;;;10.22;69.23;100130.56;4233869;28;22936;-64
2023/04/11 06:36:27;;;;;;;22.47;12.67;;;;;;;10.29;69.19;100122.69;4215745;28;20297;-64
2023/04/11 06:38:53;;;;;;;19.53;11.53;;;;;;;10.33;68.89;100124.06;4219943;28;20231;-65
2023/04/11 06:41:20;;;;;;;19.63;11.00;;;;;;;10.34;68.59;100111.41;4247367;28;20231;-66
2023/04/11 06:43:47;;;;;;;20.47;11.40;;;;;;;10.33;68.66;100118.66;4224038;28;20304;-68
2023/04/11 06:46:13;;;;;;;22.67;11.33;;;;;;;10.49;68.20;100122.56;4237911;28;22076;-65
2023/04/11 06:48:40;;;;;;;25.03;11.03;;;;;;;10.67;67.72;100100.91;4237936;28;21763;-64
2023/04/11 06:51:09;;;;;;;19.27;11.13;;;;;;;10.87;66.86;100107.84;4228416;28;20231;-66
2023/04/11 06:53:35;;;;;;;20.70;11.57;;;;;;;11.45;65.57;100102.78;4249877;28;22847;-65
2023/04/11 06:56:04;;;;;;;16.43;9.67;;;;;;;13.44;58.93;100093.88;4241542;28;20231;-65
2023/04/11 06:58:30;;;;;;;18.77;9.47;;;;;;;15.49;54.00;100092.63;4218487;28;21079;-65
2023/04/11 07:00:57;;;;;;;15.40;8.77;;;;;;;16.37;50.40;100089.09;4243016;28;20917;-67
2023/04/11 07:03:24;;;;;;;14.57;8.70;;;;;;;17.18;47.56;100085.19;4251816;28;20238;-66
2023/04/11 07:05:51;;;;;;;15.53;8.70;;;;;;;16.68;48.68;100081.63;4250589;28;21172;-67
2023/04/11 07:08:18;;;;;;;20.33;8.97;;;;;;;17.11;47.84;100076.09;4243897;28;22508;-64
2023/04/11 07:10:44;;;;;;;13.17;8.67;;;;;;;18.05;45.80;100080.22;4222104;28;20607;-67
2023/04/11 07:13:11;;;;;;;12.47;8.07;;;;;;;19.30;43.51;100076.09;4239566;28;20261;-69
2023/04/11 07:15:38;;;;;;;15.83;8.60;;;;;;;18.65;43.54;100068.53;4241772;28;20231;-63
2023/04/11 07:18:05;;;;;;;18.60;8.73;;;;;;;18.81;44.16;100067.25;4259066;28;20436;-69
2023/04/11 07:20:33;;;;;;;15.83;8.20;;;;;;;17.40;47.09;100060.50;4249835;28;20614;-64
2023/04/11 07:22:59;;;;;;;11.67;8.23;;;;;;;18.07;45.92;100057.25;4232745;28;20462;-65
2023/04/11 07:25:29;;;;;;;17.47;8.23;;;;;;;20.48;40.56;100066.97;4248340;28;20238;-68
2023/04/11 07:27:56;;;;;;;16.73;8.07;;;;;;;20.99;39.36;100059.63;4242128;28;21190;-68
2023/04/11 07:30:23;;;;;;;13.70;7.93;;;;;;;21.53;38.54;100051.66;4236686;28;20293;-69
2023/04/11 07:32:50;;;;;;;11.50;7.33;;;;;;;21.58;39.09;100051.00;4252317;28;20232;-69
2023/04/11 07:35:17;;;;;;;15.80;7.43;;;;;;;21.37;39.29;100050.34;4238069;28;20316;-70
2023/04/11 07:37:44;;;;;;;12.20;6.93;;;;;;;21.65;38.90;100047.09;4241961;28;22144;-71
2023/04/11 07:40:14;;;;;;;14.07;8.03;;;;;;;19.53;43.12;100041.00;4229164;28;20231;-68
2023/04/11 07:42:41;;;;;;;12.00;6.90;;;;;;;21.10;39.79;100039.63;4210669;28;22262;-67
2023/04/11 07:45:08;;;;;;;9.27;6.77;;;;;;;21.13;39.02;100046.59;4252185;28;20270;-69
2023/04/11 07:47:35;;;;;;;11.57;7.00;;;;;;;19.47;42.50;100042.72;4245784;28;21105;-67
2023/04/11 07:50:03;;;;;;;13.13;6.70;;;;;;;19.80;42.27;100023.34;4231185;28;21084;-68
2023/04/11 07:52:30;;;;;;;11.23;6.60;;;;;;;20.66;40.77;100030.44;4220535;28;21514;-70
2023/04/11 07:54:56;;;;;;;13.80;6.50;;;;;;;22.44;37.30;100023.34;4214962;28;22077;-67
2023/04/11 07:57:23;;;;;;;12.23;6.40;;;;;;;20.03;41.44;100016.50;4226728;28;21809;-66
2023/04/11 07:59:50;;;;;;;10.20;6.30;;;;;;;20.22;41.40;100016.63;4223914;28;20256;-66
2023/04/11 08:02:16;;;;;;;8.97;5.97;;;;;;;21.11;38.93;100016.50;4230530;28;20302;-69
2023/04/11 08:04:43;;;;;;;11.10;6.13;;;;;;;19.05;43.26;100014.75;4226563;28;20231;-69
2023/04/11 08:07:10;;;;;;;13.07;6.63;;;;;;;18.21;45.13;100020.63;4243504;28;20270;-50
2023/04/11 08:09:37;;;;;;;13.23;6.83;;;;;;;17.37;47.22;100017.16;4232668;28;20382;-63
2023/04/11 08:12:05;;;;;;;13.60;6.40;;;;;;;17.38;47.71;100008.72;4224535;28;21526;-64
2023/04/11 08:14:31;;;;;;;11.47;5.90;;;;;;;16.47;49.72;99995.88;4235822;28;21916;-65
2023/04/11 08:16:58;;;;;;;10.63;6.50;;;;;;;16.69;49.62;100004.06;4228422;28;20322;-66
2023/04/11 08:19:26;;;;;;;10.10;6.17;;;;;;;16.55;49.98;100008.56;4233827;28;20559;-65
2023/04/11 08:21:52;;;;;;;9.67;5.43;;;;;;;15.72;51.04;100009.81;4223290;28;20252;-66
2023/04/11 08:24:19;;;;;;;11.13;5.60;;;;;;;16.42;49.43;100010.16;4239947;28;25210;-65
2023/04/11 08:26:46;;;;;;;9.67;5.13;;;;;;;15.79;50.82;100001.66;4218242;28;20377;-63
2023/04/11 08:29:13;;;;;;;7.77;5.07;;;;;;;16.09;49.69;99993.41;4235964;28;20235;-64
2023/04/11 08:31:45;;;;;;;8.30;5.10;;;;;;;16.31;49.47;99995.09;4231317;28;20246;-66
2023/04/11 08:34:12;;;;;;;8.37;4.77;;;;;;;16.44;48.44;99988.09;4223231;28;20432;-65
2023/04/11 08:36:40;;;;;;;7.53;4.43;;;;;;;16.00;49.46;99973.59;4233275;28;20244;-67
2023/04/11 08:39:07;;;;;;;6.97;4.17;;;;;;;16.47;48.07;99974.00;4234413;28;20248;-68
2023/04/11 08:41:34;;;;;;;6.53;4.17;;;;;;;16.21;49.03;99966.44;4238411;28;20250;-65
2023/04/11 08:44:01;;;;;;;5.47;3.47;;;;;;;16.13;48.00;99968.25;4218425;28;20238;-63
2023/04/11 08:46:31;;;;;;;7.53;4.00;;;;;;;15.53;49.47;99952.06;4231124;28;23409;-63
2023/04/11 08:48:59;;;;;;;6.97;4.10;;;;;;;15.98;48.14;99960.16;4247897;28;20329;-62
2023/04/11 08:51:26;;;;;;;6.73;3.70;;;;;;;15.83;48.20;99948.44;4279609;28;25350;-64
2023/04/11 08:53:56;;;;;;;6.23;3.90;;;;;;;16.20;47.35;99937.47;4227645;28;21226;-65
2023/04/11 08:56:23;;;;;;;8.30;4.33;;;;;;;15.23;50.05;99951.28;4246209;28;20239;-66
2023/04/11 08:58:50;;;;;;;7.10;4.03;;;;;;;15.61;49.23;99937.47;4223078;28;20232;-64
2023/04/11 09:01:23;;;;;;;8.47;4.03;;;;;;;15.73;48.80;99943.28;4262008;28;20235;-65
2023/04/11 09:03:51;;;;;;;6.63;3.60;;;;;;;15.91;48.70;99937.41;4277386;28;22321;-65
2023/04/11 09:06:18;;;;;;;5.90;3.60;;;;;;;16.29;47.09;99938.97;4246933;28;20686;-64
2023/04/11 09:08:44;;;;;;;6.53;4.30;;;;;;;15.72;48.49;99935.25;4213697;28;25587;-66
2023/04/11 09:11:11;;;;;;;8.10;4.13;;;;;;;15.42;49.97;99932.63;4231287;28;21465;-67
2023/04/11 09:13:38;;;;;;;5.67;3.57;;;;;;;15.28;49.44;99927.00;4226309;28;20550;-66
2023/04/11 09:16:08;;;;;;;6.70;3.63;;;;;;;15.44;48.37;99919.66;4217340;28;20234;-65
2023/04/11 09:18:37;;;;;;;7.20;3.67;;;;;;;15.44;48.95;99916.91;4233718;28;20243;-63
2023/04/11 09:21:10;;;;;;;9.23;4.03;;;;;;;15.23;48.78;99915.84;4230585;28;21091;-65
2023/04/11 09:23:37;;;;;;;4.73;2.90;;;;;;;15.47;47.56;99895.56;4254182;28;23199;-65
2023/04/11 09:26:05;;;;;;;4.43;3.00;;;;;;;15.69;47.15;99893.69;4222768;28;20432;-64
2023/04/11 09:28:43;;;;;;;5.07;3.23;;;;;;;15.51;47.16;99887.81;4219893;28;21706;-65
2023/04/11 09:31:11;;;;;;;9.43;3.47;;;;;;;15.65;47.24;99878.75;4236522;28;20235;-66
2023/04/11 09:33:51;;;;;;;5.97;3.20;;;;;;;15.39;46.25;99871.13;4213671;28;20238;-65
2023/04/11 09:36:20;;;;;;;7.40;3.37;;;;;;;15.09;48.10;99873.09;4211708;28;20242;-65
2023/04/11 09:38:47;;;;;;;5.30;3.00;;;;;;;15.36;46.06;99852.44;4217069;28;20299;-66
2023/04/11 09:41:14;;;;;;;6.73;3.10;;;;;;;15.12;46.25;99859.94;4232507;28;20238;-66
2023/04/11 09:43:49;;;;;;;5.40;2.70;;;;;;;15.26;45.85;99851.91;4231651;28;20255;-64
2023/04/11 09:46:19;;;;;;;9.03;2.70;;;;;;;15.14;46.15;99840.66;4220604;28;25004;-64
2023/04/11 09:48:51;;;;;;;7.60;2.70;;;;;;;15.42;45.88;99834.44;4216074;28;20339;-65
2023/04/11 09:51:18;;;;;;;4.87;2.77;;;;;;;15.52;45.30;99840.41;4237382;28;21345;-63
2023/04/11 09:54:00;;;;;;;5.13;2.97;;;;;;;15.43;45.35;99834.25;4228068;28;22040;-65
2023/04/11 09:56:27;;;;;;;4.53;2.93;;;;;;;15.40;45.79;99837.38;4221863;28;20235;-66
2023/04/11 09:58:56;;;;;;;5.33;2.97;;;;;;;15.33;46.27;99823.66;4208953;28;20234;-64
2023/04/11 10:01:23;;;;;;;5.07;3.20;;;;;;;15.27;45.91;99818.97;4222240;28;20523;-65
2023/04/11 10:03:51;;;;;;;4.33;3.13;;;;;;;15.13;46.14;99826.19;4225306;28;21425;-65
2023/04/11 10:06:30;;;;;;;6.87;3.10;;;;;;;15.37;46.31;99824.97;4224659;28;20763;-65
2023/04/11 10:09:11;;;;;;;9.53;3.97;;;;;;;15.56;45.79;99811.69;4234005;28;22293;-66
2023/04/11 10:11:44;;;;;;;7.33;3.60;;;;;;;15.10;46.89;99817.53;4229907;28;20337;-65
2023/04/11 10:14:36;;;;;;;7.17;4.07;;;;;;;15.16;47.49;99814.03;4221246;28;20308;-64
2023/04/11 10:17:16;;;;;;;6.73;3.67;;;;;;;15.54;46.74;99808.34;4248686;28;20251;-65
2023/04/11 10:19:50;;;;;;;7.80;3.93;;;;;;;15.24;47.28;99819.38;4245578;28;21316;-66
2023/04/11 10:22:42;;;;;;;6.90;4.23;;;;;;;15.08;48.17;99814.16;4223922;28;20430;-64
2023/04/11 10:25:16;;;;;;;7.33;4.30;;;;;;;15.35;47.63;99804.38;4233588;28;20241;-64
2023/04/11 10:27:59;;;;;;;8.00;4.20;;;;;;;15.52;47.56;99805.78;4223634;28;20230;-66
2023/04/11 10:30:59;;;;;;;9.07;4.70;;;;;;;15.81;45.90;99795.78;4236778;28;20228;-64
2023/04/11 10:33:26;;;;;;;5.63;3.37;;;;;;;15.64;45.64;99800.66;4243954;28;20235;-65
2023/04/11 10:36:08;;;;;;;5.87;3.67;;;;;;;15.67;44.65;99794.81;4231657;28;20272;-64
2023/04/11 10:38:35;;;;;;;6.10;3.43;;;;;;;15.53;45.16;99793.84;4225239;28;20235;-64
2023/04/11 10:41:17;;;;;;;6.30;4.13;;;;;;;15.44;45.27;99792.31;4250634;28;20235;-66
2023/04/11 10:43:45;;;;;;;10.43;3.83;;;;;;;15.75;43.82;99791.09;4228122;28;20279;-66
2023/04/11 10:46:22;;;;;;;6.03;3.30;;;;;;;15.45;44.05;99780.34;4226871;28;21824;-65
2023/04/11 10:48:59;;;;;;;6.30;3.60;;;;;;;15.48;43.79;99792.75;4238092;28;20274;-66
2023/04/11 10:51:30;;;;;;;7.27;3.60;;;;;;;15.49;42.31;99778.91;4238741;28;25610;-65
2023/04/11 10:53:58;;;;;;;5.83;3.50;;;;;;;15.56;43.64;99772.69;4239208;28;22191;-66
2023/04/11 10:56:47;;;;;;;7.33;3.57;;;;;;;15.96;42.15;99779.31;4233020;28;20224;-65
2023/04/11 10:59:35;;;;;;;8.37;3.80;;;;;;;15.90;41.76;99771.09;4235128;28;20235;-65
2023/04/11 11:02:03;;;;;;;10.43;3.80;;;;;;;15.76;43.44;99770.94;4216139;28;20360;-64
2023/04/11 11:04:30;;;;;;;7.10;3.20;;;;;;;16.23;41.36;99767.72;4226805;28;20301;-64
2023/04/11 11:06:58;;;;;;;5.23;2.93;;;;;;;16.39;39.94;99774.78;4236800;28;20351;-64
2023/04/11 11:09:27;;;;;;;11.63;3.40;;;;;;;16.34;39.33;99761.72;4242324;28;20227;-66
2023/04/11 11:12:21;;;;;;;12.67;3.57;;;;;;;16.32;39.30;99766.53;4226470;28;21312;-65
2023/04/11 11:14:48;;;;;;;5.17;3.43;;;;;;;16.31;39.40;99757.47;4225812;28;21124;-64
2023/04/11 11:17:16;;;;;;;6.90;3.20;;;;;;;16.13;39.07;99762.63;4234708;28;21944;-67
2023/04/11 11:19:46;;;;;;;5.43;2.70;;;;;;;15.87;38.84;99757.84;4229959;28;21215;-65
2023/04/11 11:22:14;;;;;;;5.50;3.10;;;;;;;15.58;39.87;99765.16;4232944;28;20303;-65
2023/04/11 11:24:42;;;;;;;4.10;3.10;;;;;;;15.52;39.72;99759.41;4250665;28;20236;-65
2023/04/11 11:27:22;;;;;;;5.50;3.23;;;;;;;15.50;40.37;99742.44;4226786;28;20601;-65